sensor_id;sensor_type;location;lat;lon;timestamp;P1;durP1;ratioP1;P2;durP2;ratioP2
2866;SDS011;1441;48.886;8.728;2023-05-24T00:01:14;6.53;;;2.70;;
2866;SDS011;1441;48.886;8.728;2023-05-24T00:03:40;4.50;;;2.50;;
2866;SDS011;1441;48.886;8.728;2023-05-24T00:06:06;9.60;;;3.27;;
2866;SDS011;1441;48.886;8.728;2023-05-24T00:08:32;3.57;;;2.77;;
2866;SDS011;1441;48.886;8.728;2023-05-24T00:10:58;3.50;;;2.67;;
2866;SDS011;1441;48.886;8.728;2023-05-24T00:13:24;5.33;;;2.70;;
2866;SDS011;1441;48.886;8.728;2023-05-24T00:15:49;3.93;;;2.70;;
2866;SDS011;1441;48.886;8.728;2023-05-24T00:18:15;4.80;;;2.87;;
2866;SDS011;1441;48.886;8.728;2023-05-24T00:20:42;5.17;;;3.00;;
2866;SDS011;1441;48.886;8.728;2023-05-24T00:23:08;5.77;;;2.50;;
2866;SDS011;1441;48.886;8.728;2023-05-24T00:25:34;5.23;;;3.67;;
2866;SDS011;1441;48.886;8.728;2023-05-24T00:28:00;3.30;;;2.53;;
2866;SDS011;1441;48.886;8.728;2023-05-24T00:30:25;6.03;;;2.67;;
2866;SDS011;1441;48.886;8.728;2023-05-24T00:32:51;6.77;;;2.70;;
2866;SDS011;1441;48.886;8.728;2023-05-24T00:35:17;5.07;;;3.17;;
2866;SDS011;1441;48.886;8.728;2023-05-24T00:37:42;7.30;;;2.83;;
2866;SDS011;1441;48.886;8.728;2023-05-24T00:40:09;5.97;;;2.77;;
2866;SDS011;1441;48.886;8.728;2023-05-24T00:42:35;4.97;;;2.50;;
2866;SDS011;1441;48.886;8.728;2023-05-24T00:45:01;6.37;;;3.27;;
2866;SDS011;1441;48.886;8.728;2023-05-24T00:47:26;3.60;;;2.70;;
2866;SDS011;1441;48.886;8.728;2023-05-24T00:49:52;3.17;;;2.87;;
2866;SDS011;1441;48.886;8.728;2023-05-24T00:52:18;5.00;;;2.80;;
2866;SDS011;1441;48.886;8.728;2023-05-24T00:54:44;7.30;;;2.87;;
2866;SDS011;1441;48.886;8.728;2023-05-24T00:57:10;2.50;;;2.30;;
2866;SDS011;1441;48.886;8.728;2023-05-24T00:59:37;3.57;;;2.53;;
2866;SDS011;1441;48.886;8.728;2023-05-24T01:02:04;3.10;;;2.70;;
2866;SDS011;1441;48.886;8.728;2023-05-24T01:04:29;7.17;;;3.80;;
2866;SDS011;1441;48.886;8.728;2023-05-24T01:07:04;8.10;;;2.90;;
2866;SDS011;1441;48.886;8.728;2023-05-24T01:09:58;4.67;;;3.00;;
2866;SDS011;1441;48.886;8.728;2023-05-24T01:20:35;4.87;;;2.73;;
2866;SDS011;1441;48.886;8.728;2023-05-24T01:26:02;6.53;;;3.23;;
2866;SDS011;1441;48.886;8.728;2023-05-24T01:28:41;4.77;;;2.57;;
2866;SDS011;1441;48.886;8.728;2023-05-24T01:31:08;7.03;;;2.60;;
2866;SDS011;1441;48.886;8.728;2023-05-24T01:33:39;4.00;;;2.77;;
2866;SDS011;1441;48.886;8.728;2023-05-24T01:36:08;9.37;;;3.10;;
2866;SDS011;1441;48.886;8.728;2023-05-24T01:38:34;3.33;;;2.87;;
2866;SDS011;1441;48.886;8.728;2023-05-24T01:41:14;6.27;;;2.53;;
2866;SDS011;1441;48.886;8.728;2023-05-24T01:43:55;7.20;;;3.10;;
2866;SDS011;1441;48.886;8.728;2023-05-24T01:46:39;7.33;;;2.60;;
2866;SDS011;1441;48.886;8.728;2023-05-24T01:49:10;7.87;;;3.30;;
2866;SDS011;1441;48.886;8.728;2023-05-24T01:52:03;7.43;;;3.10;;
2866;SDS011;1441;48.886;8.728;2023-05-24T01:54:30;6.13;;;2.90;;
2866;SDS011;1441;48.886;8.728;2023-05-24T01:56:58;7.27;;;3.50;;
2866;SDS011;1441;48.886;8.728;2023-05-24T01:59:28;7.20;;;3.40;;
2866;SDS011;1441;48.886;8.728;2023-05-24T02:01:55;8.53;;;3.20;;
2866;SDS011;1441;48.886;8.728;2023-05-24T02:04:21;6.00;;;3.00;;
2866;SDS011;1441;48.886;8.728;2023-05-24T02:06:48;8.40;;;3.40;;
2866;SDS011;1441;48.886;8.728;2023-05-24T02:09:13;7.17;;;3.70;;
2866;SDS011;1441;48.886;8.728;2023-05-24T02:11:39;5.53;;;3.00;;
2866;SDS011;1441;48.886;8.728;2023-05-24T02:14:05;6.73;;;3.47;;
2866;SDS011;1441;48.886;8.728;2023-05-24T02:16:30;6.77;;;3.23;;
2866;SDS011;1441;48.886;8.728;2023-05-24T02:18:57;10.60;;;3.47;;
2866;SDS011;1441;48.886;8.728;2023-05-24T02:21:22;12.50;;;3.63;;
2866;SDS011;1441;48.886;8.728;2023-05-24T02:23:49;4.57;;;3.47;;
2866;SDS011;1441;48.886;8.728;2023-05-24T02:26:14;7.00;;;3.43;;
2866;SDS011;1441;48.886;8.728;2023-05-24T02:28:42;9.03;;;3.20;;
2866;SDS011;1441;48.886;8.728;2023-05-24T02:31:08;13.93;;;3.73;;
2866;SDS011;1441;48.886;8.728;2023-05-24T02:33:34;7.10;;;3.30;;
2866;SDS011;1441;48.886;8.728;2023-05-24T02:36:00;16.77;;;4.13;;
2866;SDS011;1441;48.886;8.728;2023-05-24T02:38:25;3.20;;;2.70;;
2866;SDS011;1441;48.886;8.728;2023-05-24T02:40:51;9.60;;;3.43;;
2866;SDS011;1441;48.886;8.728;2023-05-24T02:43:16;4.90;;;3.20;;
2866;SDS011;1441;48.886;8.728;2023-05-24T02:45:42;10.70;;;3.40;;
2866;SDS011;1441;48.886;8.728;2023-05-24T02:48:08;7.07;;;3.20;;
2866;SDS011;1441;48.886;8.728;2023-05-24T02:50:33;6.40;;;3.23;;
2866;SDS011;1441;48.886;8.728;2023-05-24T02:53:00;7.40;;;3.17;;
2866;SDS011;1441;48.886;8.728;2023-05-24T02:55:26;10.23;;;4.30;;
2866;SDS011;1441;48.886;8.728;2023-05-24T02:57:53;6.80;;;3.30;;
2866;SDS011;1441;48.886;8.728;2023-05-24T03:00:19;5.40;;;2.93;;
2866;SDS011;1441;48.886;8.728;2023-05-24T03:02:45;9.03;;;3.00;;
2866;SDS011;1441;48.886;8.728;2023-05-24T03:05:11;7.53;;;3.50;;
2866;SDS011;1441;48.886;8.728;2023-05-24T03:07:37;7.83;;;3.43;;
2866;SDS011;1441;48.886;8.728;2023-05-24T03:10:02;10.50;;;3.10;;
2866;SDS011;1441;48.886;8.728;2023-05-24T03:12:28;13.43;;;3.20;;
2866;SDS011;1441;48.886;8.728;2023-05-24T03:14:54;6.10;;;3.77;;
2866;SDS011;1441;48.886;8.728;2023-05-24T03:17:20;5.77;;;2.90;;
2866;SDS011;1441;48.886;8.728;2023-05-24T03:19:45;7.03;;;3.30;;
2866;SDS011;1441;48.886;8.728;2023-05-24T03:22:11;6.27;;;3.50;;
2866;SDS011;1441;48.886;8.728;2023-05-24T03:24:36;4.90;;;3.00;;
2866;SDS011;1441;48.886;8.728;2023-05-24T03:27:02;10.43;;;4.00;;
2866;SDS011;1441;48.886;8.728;2023-05-24T03:29:29;7.30;;;2.90;;
2866;SDS011;1441;48.886;8.728;2023-05-24T03:31:55;7.50;;;3.10;;
2866;SDS011;1441;48.886;8.728;2023-05-24T03:34:21;5.87;;;3.10;;
2866;SDS011;1441;48.886;8.728;2023-05-24T03:36:46;4.00;;;2.73;;
2866;SDS011;1441;48.886;8.728;2023-05-24T03:39:12;11.67;;;2.90;;
2866;SDS011;1441;48.886;8.728;2023-05-24T03:41:37;5.33;;;3.43;;
2866;SDS011;1441;48.886;8.728;2023-05-24T03:44:03;5.30;;;2.83;;
2866;SDS011;1441;48.886;8.728;2023-05-24T03:46:29;18.67;;;4.10;;
2866;SDS011;1441;48.886;8.728;2023-05-24T03:48:54;4.43;;;3.23;;
2866;SDS011;1441;48.886;8.728;2023-05-24T03:51:20;5.60;;;3.00;;
2866;SDS011;1441;48.886;8.728;2023-05-24T03:53:48;8.40;;;3.50;;
2866;SDS011;1441;48.886;8.728;2023-05-24T03:56:13;8.03;;;3.97;;
2866;SDS011;1441;48.886;8.728;2023-05-24T03:58:39;6.07;;;3.57;;
2866;SDS011;1441;48.886;8.728;2023-05-24T04:01:05;11.80;;;3.73;;
2866;SDS011;1441;48.886;8.728;2023-05-24T04:03:31;7.67;;;4.00;;
2866;SDS011;1441;48.886;8.728;2023-05-24T04:05:57;8.93;;;4.43;;
2866;SDS011;1441;48.886;8.728;2023-05-24T04:08:23;7.07;;;3.30;;
2866;SDS011;1441;48.886;8.728;2023-05-24T04:10:48;4.00;;;3.23;;
2866;SDS011;1441;48.886;8.728;2023-05-24T04:13:14;10.40;;;3.77;;
2866;SDS011;1441;48.886;8.728;2023-05-24T04:15:40;22.40;;;3.63;;
2866;SDS011;1441;48.886;8.728;2023-05-24T04:18:06;14.27;;;3.93;;
2866;SDS011;1441;48.886;8.728;2023-05-24T04:20:31;9.27;;;4.73;;
2866;SDS011;1441;48.886;8.728;2023-05-24T04:22:57;11.93;;;4.23;;
2866;SDS011;1441;48.886;8.728;2023-05-24T04:25:22;8.20;;;3.80;;
2866;SDS011;1441;48.886;8.728;2023-05-24T04:27:48;15.13;;;3.80;;
2866;SDS011;1441;48.886;8.728;2023-05-24T04:30:14;11.17;;;3.87;;
2866;SDS011;1441;48.886;8.728;2023-05-24T04:32:40;8.53;;;3.40;;
2866;SDS011;1441;48.886;8.728;2023-05-24T04:35:08;19.20;;;4.40;;
2866;SDS011;1441;48.886;8.728;2023-05-24T04:37:34;12.50;;;3.60;;
2866;SDS011;1441;48.886;8.728;2023-05-24T04:40:00;5.70;;;4.03;;
2866;SDS011;1441;48.886;8.728;2023-05-24T04:42:25;8.73;;;3.90;;
2866;SDS011;1441;48.886;8.728;2023-05-24T04:44:55;6.97;;;3.97;;
2866;SDS011;1441;48.886;8.728;2023-05-24T04:47:21;12.53;;;4.30;;
2866;SDS011;1441;48.886;8.728;2023-05-24T04:49:46;11.70;;;4.10;;
2866;SDS011;1441;48.886;8.728;2023-05-24T04:52:12;6.23;;;3.80;;
2866;SDS011;1441;48.886;8.728;2023-05-24T04:54:37;8.90;;;3.90;;
2866;SDS011;1441;48.886;8.728;2023-05-24T04:57:03;8.00;;;3.40;;
2866;SDS011;1441;48.886;8.728;2023-05-24T04:59:29;13.43;;;3.47;;
2866;SDS011;1441;48.886;8.728;2023-05-24T05:01:54;7.87;;;3.23;;
2866;SDS011;1441;48.886;8.728;2023-05-24T05:04:20;13.73;;;4.20;;
2866;SDS011;1441;48.886;8.728;2023-05-24T05:06:45;11.87;;;4.03;;
2866;SDS011;1441;48.886;8.728;2023-05-24T05:09:12;9.90;;;4.43;;
2866;SDS011;1441;48.886;8.728;2023-05-24T05:11:38;9.43;;;4.03;;
2866;SDS011;1441;48.886;8.728;2023-05-24T05:14:04;15.20;;;4.00;;
2866;SDS011;1441;48.886;8.728;2023-05-24T05:16:32;9.13;;;3.43;;
2866;SDS011;1441;48.886;8.728;2023-05-24T05:18:58;13.77;;;4.50;;
2866;SDS011;1441;48.886;8.728;2023-05-24T05:21:24;11.80;;;4.00;;
2866;SDS011;1441;48.886;8.728;2023-05-24T05:23:49;6.93;;;3.20;;
2866;SDS011;1441;48.886;8.728;2023-05-24T05:26:15;9.57;;;3.67;;
2866;SDS011;1441;48.886;8.728;2023-05-24T05:28:40;9.17;;;3.70;;
2866;SDS011;1441;48.886;8.728;2023-05-24T05:31:06;11.67;;;3.60;;
2866;SDS011;1441;48.886;8.728;2023-05-24T05:33:32;9.50;;;3.60;;
2866;SDS011;1441;48.886;8.728;2023-05-24T05:35:57;6.60;;;3.53;;
2866;SDS011;1441;48.886;8.728;2023-05-24T05:38:24;9.53;;;3.60;;
2866;SDS011;1441;48.886;8.728;2023-05-24T05:40:49;11.80;;;3.80;;
2866;SDS011;1441;48.886;8.728;2023-05-24T05:43:15;11.57;;;3.53;;
2866;SDS011;1441;48.886;8.728;2023-05-24T05:45:41;8.13;;;3.27;;
2866;SDS011;1441;48.886;8.728;2023-05-24T05:48:06;5.30;;;3.40;;
2866;SDS011;1441;48.886;8.728;2023-05-24T05:50:32;8.83;;;3.73;;
2866;SDS011;1441;48.886;8.728;2023-05-24T05:52:57;6.33;;;3.40;;
2866;SDS011;1441;48.886;8.728;2023-05-24T05:55:23;9.40;;;3.37;;
2866;SDS011;1441;48.886;8.728;2023-05-24T05:57:48;11.30;;;4.57;;
2866;SDS011;1441;48.886;8.728;2023-05-24T06:00:14;7.60;;;3.37;;
2866;SDS011;1441;48.886;8.728;2023-05-24T06:02:40;11.60;;;3.50;;
2866;SDS011;1441;48.886;8.728;2023-05-24T06:05:06;7.80;;;3.87;;
2866;SDS011;1441;48.886;8.728;2023-05-24T06:07:32;15.13;;;5.00;;
2866;SDS011;1441;48.886;8.728;2023-05-24T06:09:58;15.73;;;5.17;;
2866;SDS011;1441;48.886;8.728;2023-05-24T06:12:23;14.40;;;3.90;;
2866;SDS011;1441;48.886;8.728;2023-05-24T06:14:49;10.87;;;3.27;;
2866;SDS011;1441;48.886;8.728;2023-05-24T06:17:16;15.87;;;4.37;;
2866;SDS011;1441;48.886;8.728;2023-05-24T06:19:42;8.27;;;3.17;;
2866;SDS011;1441;48.886;8.728;2023-05-24T06:22:08;13.00;;;3.67;;
2866;SDS011;1441;48.886;8.728;2023-05-24T06:24:34;14.20;;;3.90;;
2866;SDS011;1441;48.886;8.728;2023-05-24T06:27:00;5.37;;;3.50;;
2866;SDS011;1441;48.886;8.728;2023-05-24T06:29:26;6.33;;;3.00;;
2866;SDS011;1441;48.886;8.728;2023-05-24T06:31:51;10.53;;;3.17;;
2866;SDS011;1441;48.886;8.728;2023-05-24T06:34:17;11.10;;;3.90;;
2866;SDS011;1441;48.886;8.728;2023-05-24T06:36:45;8.43;;;3.13;;
2866;SDS011;1441;48.886;8.728;2023-05-24T06:39:12;10.33;;;3.00;;
2866;SDS011;1441;48.886;8.728;2023-05-24T06:41:38;9.07;;;3.80;;
2866;SDS011;1441;48.886;8.728;2023-05-24T06:44:04;10.27;;;3.37;;
2866;SDS011;1441;48.886;8.728;2023-05-24T06:46:30;13.10;;;3.30;;
2866;SDS011;1441;48.886;8.728;2023-05-24T06:48:56;14.37;;;4.17;;
2866;SDS011;1441;48.886;8.728;2023-05-24T06:51:22;7.80;;;3.50;;
2866;SDS011;1441;48.886;8.728;2023-05-24T06:53:48;9.60;;;3.50;;
2866;SDS011;1441;48.886;8.728;2023-05-24T06:56:14;8.40;;;3.40;;
2866;SDS011;1441;48.886;8.728;2023-05-24T06:58:40;13.13;;;3.10;;
2866;SDS011;1441;48.886;8.728;2023-05-24T07:01:06;9.40;;;3.17;;
2866;SDS011;1441;48.886;8.728;2023-05-24T07:03:32;5.93;;;3.23;;
2866;SDS011;1441;48.886;8.728;2023-05-24T07:05:58;8.50;;;3.50;;
2866;SDS011;1441;48.886;8.728;2023-05-24T07:08:24;12.77;;;3.83;;
2866;SDS011;1441;48.886;8.728;2023-05-24T07:10:50;9.50;;;3.60;;
2866;SDS011;1441;48.886;8.728;2023-05-24T07:13:17;11.10;;;3.80;;
2866;SDS011;1441;48.886;8.728;2023-05-24T07:15:42;8.87;;;3.17;;
2866;SDS011;1441;48.886;8.728;2023-05-24T07:18:10;10.13;;;3.97;;
2866;SDS011;1441;48.886;8.728;2023-05-24T07:20:36;13.40;;;4.73;;
2866;SDS011;1441;48.886;8.728;2023-05-24T07:23:02;15.27;;;3.53;;
2866;SDS011;1441;48.886;8.728;2023-05-24T07:25:28;11.77;;;3.93;;
2866;SDS011;1441;48.886;8.728;2023-05-24T07:27:54;9.93;;;3.57;;
2866;SDS011;1441;48.886;8.728;2023-05-24T07:30:19;9.20;;;4.00;;
2866;SDS011;1441;48.886;8.728;2023-05-24T07:32:45;9.07;;;3.30;;
2866;SDS011;1441;48.886;8.728;2023-05-24T07:35:11;9.97;;;3.57;;
2866;SDS011;1441;48.886;8.728;2023-05-24T07:37:37;4.70;;;2.90;;
2866;SDS011;1441;48.886;8.728;2023-05-24T07:40:03;11.20;;;4.20;;
2866;SDS011;1441;48.886;8.728;2023-05-24T07:42:29;11.50;;;3.10;;
2866;SDS011;1441;48.886;8.728;2023-05-24T07:44:55;8.63;;;3.43;;
2866;SDS011;1441;48.886;8.728;2023-05-24T07:47:21;14.07;;;3.77;;
2866;SDS011;1441;48.886;8.728;2023-05-24T07:49:46;6.40;;;3.50;;
2866;SDS011;1441;48.886;8.728;2023-05-24T07:52:12;12.10;;;3.20;;
2866;SDS011;1441;48.886;8.728;2023-05-24T07:54:38;12.47;;;3.47;;
2866;SDS011;1441;48.886;8.728;2023-05-24T07:57:04;11.83;;;3.50;;
2866;SDS011;1441;48.886;8.728;2023-05-24T07:59:32;25.50;;;4.37;;
2866;SDS011;1441;48.886;8.728;2023-05-24T08:01:57;11.27;;;3.40;;
2866;SDS011;1441;48.886;8.728;2023-05-24T08:04:29;6.77;;;3.73;;
2866;SDS011;1441;48.886;8.728;2023-05-24T08:06:56;15.97;;;4.30;;
2866;SDS011;1441;48.886;8.728;2023-05-24T08:09:23;8.03;;;3.50;;
2866;SDS011;1441;48.886;8.728;2023-05-24T08:11:48;10.87;;;3.90;;
2866;SDS011;1441;48.886;8.728;2023-05-24T08:14:14;8.43;;;3.50;;
2866;SDS011;1441;48.886;8.728;2023-05-24T08:16:40;9.23;;;3.60;;
2866;SDS011;1441;48.886;8.728;2023-05-24T08:19:05;4.97;;;3.40;;
2866;SDS011;1441;48.886;8.728;2023-05-24T08:21:31;12.63;;;4.40;;
2866;SDS011;1441;48.886;8.728;2023-05-24T08:23:57;15.13;;;3.50;;
2866;SDS011;1441;48.886;8.728;2023-05-24T08:26:24;17.27;;;3.50;;
2866;SDS011;1441;48.886;8.728;2023-05-24T08:28:50;12.20;;;4.40;;
2866;SDS011;1441;48.886;8.728;2023-05-24T08:31:16;7.90;;;3.67;;
2866;SDS011;1441;48.886;8.728;2023-05-24T08:33:42;9.87;;;3.30;;
2866;SDS011;1441;48.886;8.728;2023-05-24T08:36:08;6.40;;;3.40;;
2866;SDS011;1441;48.886;8.728;2023-05-24T08:38:34;8.10;;;3.40;;
2866;SDS011;1441;48.886;8.728;2023-05-24T08:41:00;11.07;;;3.50;;
2866;SDS011;1441;48.886;8.728;2023-05-24T08:43:29;9.63;;;3.70;;
2866;SDS011;1441;48.886;8.728;2023-05-24T08:45:54;11.57;;;3.20;;
2866;SDS011;1441;48.886;8.728;2023-05-24T08:48:22;13.87;;;3.53;;
2866;SDS011;1441;48.886;8.728;2023-05-24T08:50:50;11.67;;;3.87;;
2866;SDS011;1441;48.886;8.728;2023-05-24T08:53:16;7.13;;;3.70;;
2866;SDS011;1441;48.886;8.728;2023-05-24T08:55:42;12.90;;;3.70;;
2866;SDS011;1441;48.886;8.728;2023-05-24T08:58:09;10.33;;;3.70;;
2866;SDS011;1441;48.886;8.728;2023-05-24T09:00:35;13.30;;;3.87;;
2866;SDS011;1441;48.886;8.728;2023-05-24T09:03:01;13.97;;;3.97;;
2866;SDS011;1441;48.886;8.728;2023-05-24T09:05:28;11.20;;;3.63;;
2866;SDS011;1441;48.886;8.728;2023-05-24T09:07:54;12.73;;;3.53;;
2866;SDS011;1441;48.886;8.728;2023-05-24T09:10:23;11.30;;;3.30;;
2866;SDS011;1441;48.886;8.728;2023-05-24T09:12:54;12.87;;;4.13;;
2866;SDS011;1441;48.886;8.728;2023-05-24T09:15:21;12.67;;;3.63;;
2866;SDS011;1441;48.886;8.728;2023-05-24T09:17:47;13.33;;;3.80;;
2866;SDS011;1441;48.886;8.728;2023-05-24T09:20:13;12.70;;;4.10;;
2866;SDS011;1441;48.886;8.728;2023-05-24T09:22:40;11.77;;;4.13;;
2866;SDS011;1441;48.886;8.728;2023-05-24T09:25:07;11.27;;;4.03;;
2866;SDS011;1441;48.886;8.728;2023-05-24T09:27:34;12.80;;;3.77;;
2866;SDS011;1441;48.886;8.728;2023-05-24T09:30:02;9.50;;;3.27;;
2866;SDS011;1441;48.886;8.728;2023-05-24T09:32:29;8.70;;;3.43;;
2866;SDS011;1441;48.886;8.728;2023-05-24T09:34:56;14.77;;;3.80;;
2866;SDS011;1441;48.886;8.728;2023-05-24T09:37:23;11.03;;;3.40;;
2866;SDS011;1441;48.886;8.728;2023-05-24T09:39:51;12.53;;;3.90;;
2866;SDS011;1441;48.886;8.728;2023-05-24T09:42:18;13.40;;;3.63;;
2866;SDS011;1441;48.886;8.728;2023-05-24T09:45:02;5.00;;;3.10;;
2866;SDS011;1441;48.886;8.728;2023-05-24T09:47:31;15.67;;;3.20;;
2866;SDS011;1441;48.886;8.728;2023-05-24T09:49:58;7.20;;;2.90;;
2866;SDS011;1441;48.886;8.728;2023-05-24T09:52:23;21.50;;;4.37;;
2866;SDS011;1441;48.886;8.728;2023-05-24T09:54:49;8.00;;;3.13;;
2866;SDS011;1441;48.886;8.728;2023-05-24T09:57:15;11.80;;;4.40;;
2866;SDS011;1441;48.886;8.728;2023-05-24T09:59:41;10.13;;;3.97;;
2866;SDS011;1441;48.886;8.728;2023-05-24T10:02:08;10.20;;;3.50;;
2866;SDS011;1441;48.886;8.728;2023-05-24T10:04:35;11.80;;;3.47;;
2866;SDS011;1441;48.886;8.728;2023-05-24T10:07:01;7.23;;;3.10;;
2866;SDS011;1441;48.886;8.728;2023-05-24T10:09:30;8.97;;;3.63;;
2866;SDS011;1441;48.886;8.728;2023-05-24T10:12:02;9.23;;;3.23;;
2866;SDS011;1441;48.886;8.728;2023-05-24T10:14:33;7.90;;;3.90;;
2866;SDS011;1441;48.886;8.728;2023-05-24T10:17:01;11.70;;;5.10;;
2866;SDS011;1441;48.886;8.728;2023-05-24T10:19:28;8.67;;;4.33;;
2866;SDS011;1441;48.886;8.728;2023-05-24T10:21:55;12.43;;;3.70;;
2866;SDS011;1441;48.886;8.728;2023-05-24T10:24:23;12.80;;;3.57;;
2866;SDS011;1441;48.886;8.728;2023-05-24T10:26:50;7.43;;;3.20;;
2866;SDS011;1441;48.886;8.728;2023-05-24T10:29:28;9.33;;;3.30;;
2866;SDS011;1441;48.886;8.728;2023-05-24T10:31:57;12.63;;;3.67;;
2866;SDS011;1441;48.886;8.728;2023-05-24T10:34:23;9.13;;;3.73;;
2866;SDS011;1441;48.886;8.728;2023-05-24T10:36:50;8.60;;;3.23;;
2866;SDS011;1441;48.886;8.728;2023-05-24T10:39:18;7.67;;;2.70;;
2866;SDS011;1441;48.886;8.728;2023-05-24T10:41:45;13.03;;;3.67;;
2866;SDS011;1441;48.886;8.728;2023-05-24T10:44:11;12.70;;;3.60;;
2866;SDS011;1441;48.886;8.728;2023-05-24T10:49:32;11.43;;;3.80;;
2866;SDS011;1441;48.886;8.728;2023-05-24T10:52:01;9.23;;;3.60;;
2866;SDS011;1441;48.886;8.728;2023-05-24T10:54:32;8.00;;;3.20;;
2866;SDS011;1441;48.886;8.728;2023-05-24T10:56:59;11.03;;;3.30;;
2866;SDS011;1441;48.886;8.728;2023-05-24T10:59:35;10.43;;;3.03;;
2866;SDS011;1441;48.886;8.728;2023-05-24T11:02:02;10.90;;;3.60;;
2866;SDS011;1441;48.886;8.728;2023-05-24T11:04:30;16.80;;;3.90;;
2866;SDS011;1441;48.886;8.728;2023-05-24T11:09:28;10.90;;;2.47;;
2866;SDS011;1441;48.886;8.728;2023-05-24T11:12:01;11.73;;;3.50;;
2866;SDS011;1441;48.886;8.728;2023-05-24T11:14:31;11.77;;;4.67;;
2866;SDS011;1441;48.886;8.728;2023-05-24T11:17:03;13.43;;;3.13;;
2866;SDS011;1441;48.886;8.728;2023-05-24T11:19:31;11.57;;;3.80;;
2866;SDS011;1441;48.886;8.728;2023-05-24T11:21:58;11.57;;;3.17;;
2866;SDS011;1441;48.886;8.728;2023-05-24T11:24:25;7.20;;;2.97;;
2866;SDS011;1441;48.886;8.728;2023-05-24T11:26:51;8.83;;;3.40;;
2866;SDS011;1441;48.886;8.728;2023-05-24T11:29:17;9.00;;;3.77;;
2866;SDS011;1441;48.886;8.728;2023-05-24T11:31:52;8.40;;;3.37;;
2866;SDS011;1441;48.886;8.728;2023-05-24T11:34:21;14.40;;;3.33;;
2866;SDS011;1441;48.886;8.728;2023-05-24T11:36:48;13.37;;;3.90;;
2866;SDS011;1441;48.886;8.728;2023-05-24T11:39:16;5.50;;;2.97;;
2866;SDS011;1441;48.886;8.728;2023-05-24T11:41:42;10.50;;;4.03;;
2866;SDS011;1441;48.886;8.728;2023-05-24T11:44:08;9.93;;;3.33;;
2866;SDS011;1441;48.886;8.728;2023-05-24T11:46:35;7.67;;;2.90;;
2866;SDS011;1441;48.886;8.728;2023-05-24T11:49:03;6.30;;;2.63;;
2866;SDS011;1441;48.886;8.728;2023-05-24T11:51:29;6.50;;;3.13;;
2866;SDS011;1441;48.886;8.728;2023-05-24T11:53:56;9.60;;;3.00;;
2866;SDS011;1441;48.886;8.728;2023-05-24T11:56:23;10.57;;;3.43;;
2866;SDS011;1441;48.886;8.728;2023-05-24T11:58:50;7.00;;;3.00;;
2866;SDS011;1441;48.886;8.728;2023-05-24T12:01:24;6.93;;;2.70;;
2866;SDS011;1441;48.886;8.728;2023-05-24T12:03:51;13.70;;;3.27;;
2866;SDS011;1441;48.886;8.728;2023-05-24T12:06:18;6.43;;;2.60;;
2866;SDS011;1441;48.886;8.728;2023-05-24T12:08:45;8.17;;;3.20;;
2866;SDS011;1441;48.886;8.728;2023-05-24T12:11:11;8.07;;;3.37;;
2866;SDS011;1441;48.886;8.728;2023-05-24T12:13:37;4.17;;;1.90;;
2866;SDS011;1441;48.886;8.728;2023-05-24T12:16:04;6.23;;;2.37;;
2866;SDS011;1441;48.886;8.728;2023-05-24T12:18:30;5.10;;;2.53;;
2866;SDS011;1441;48.886;8.728;2023-05-24T12:20:56;7.77;;;2.23;;
2866;SDS011;1441;48.886;8.728;2023-05-24T12:23:23;4.00;;;2.10;;
2866;SDS011;1441;48.886;8.728;2023-05-24T12:25:56;7.83;;;2.20;;
2866;SDS011;1441;48.886;8.728;2023-05-24T12:28:23;8.13;;;2.57;;
2866;SDS011;1441;48.886;8.728;2023-05-24T12:30:49;5.77;;;2.60;;
2866;SDS011;1441;48.886;8.728;2023-05-24T12:33:17;6.33;;;1.90;;
2866;SDS011;1441;48.886;8.728;2023-05-24T12:35:46;6.23;;;2.63;;
2866;SDS011;1441;48.886;8.728;2023-05-24T12:38:13;6.87;;;2.80;;
2866;SDS011;1441;48.886;8.728;2023-05-24T12:40:43;6.83;;;2.23;;
2866;SDS011;1441;48.886;8.728;2023-05-24T12:43:09;10.37;;;4.50;;
2866;SDS011;1441;48.886;8.728;2023-05-24T12:45:38;7.83;;;3.67;;
2866;SDS011;1441;48.886;8.728;2023-05-24T12:48:04;10.37;;;2.33;;
2866;SDS011;1441;48.886;8.728;2023-05-24T12:50:30;7.50;;;2.70;;
2866;SDS011;1441;48.886;8.728;2023-05-24T12:52:55;7.83;;;2.07;;
2866;SDS011;1441;48.886;8.728;2023-05-24T12:55:22;14.13;;;3.00;;
2866;SDS011;1441;48.886;8.728;2023-05-24T12:57:52;6.30;;;2.63;;
2866;SDS011;1441;48.886;8.728;2023-05-24T13:00:20;4.83;;;2.20;;
2866;SDS011;1441;48.886;8.728;2023-05-24T13:02:48;6.37;;;1.80;;
2866;SDS011;1441;48.886;8.728;2023-05-24T13:05:14;9.07;;;2.40;;
2866;SDS011;1441;48.886;8.728;2023-05-24T13:07:42;4.40;;;2.30;;
2866;SDS011;1441;48.886;8.728;2023-05-24T13:10:08;8.53;;;1.90;;
2866;SDS011;1441;48.886;8.728;2023-05-24T13:12:34;3.80;;;1.50;;
2866;SDS011;1441;48.886;8.728;2023-05-24T13:15:00;2.83;;;1.60;;
2866;SDS011;1441;48.886;8.728;2023-05-24T13:17:27;6.90;;;2.10;;
2866;SDS011;1441;48.886;8.728;2023-05-24T13:19:53;6.10;;;1.80;;
2866;SDS011;1441;48.886;8.728;2023-05-24T13:22:19;9.87;;;2.20;;
2866;SDS011;1441;48.886;8.728;2023-05-24T13:24:44;5.03;;;2.00;;
2866;SDS011;1441;48.886;8.728;2023-05-24T13:27:10;5.83;;;2.33;;
2866;SDS011;1441;48.886;8.728;2023-05-24T13:29:36;6.37;;;2.20;;
2866;SDS011;1441;48.886;8.728;2023-05-24T13:32:02;7.73;;;2.07;;
2866;SDS011;1441;48.886;8.728;2023-05-24T13:34:27;7.57;;;2.23;;
2866;SDS011;1441;48.886;8.728;2023-05-24T13:36:53;6.43;;;1.83;;
2866;SDS011;1441;48.886;8.728;2023-05-24T13:39:19;6.70;;;2.17;;
2866;SDS011;1441;48.886;8.728;2023-05-24T13:41:46;7.03;;;2.17;;
2866;SDS011;1441;48.886;8.728;2023-05-24T13:44:12;7.27;;;2.70;;
2866;SDS011;1441;48.886;8.728;2023-05-24T13:46:39;15.93;;;3.13;;
2866;SDS011;1441;48.886;8.728;2023-05-24T13:49:05;5.20;;;2.10;;
2866;SDS011;1441;48.886;8.728;2023-05-24T13:51:32;5.83;;;1.90;;
2866;SDS011;1441;48.886;8.728;2023-05-24T13:53:58;5.73;;;1.63;;
2866;SDS011;1441;48.886;8.728;2023-05-24T13:56:24;13.13;;;2.33;;
2866;SDS011;1441;48.886;8.728;2023-05-24T13:58:56;7.10;;;2.00;;
2866;SDS011;1441;48.886;8.728;2023-05-24T14:01:22;6.30;;;1.70;;
2866;SDS011;1441;48.886;8.728;2023-05-24T14:03:47;5.93;;;2.10;;
2866;SDS011;1441;48.886;8.728;2023-05-24T14:06:13;4.83;;;2.30;;
2866;SDS011;1441;48.886;8.728;2023-05-24T14:08:38;6.27;;;2.50;;
2866;SDS011;1441;48.886;8.728;2023-05-24T14:11:04;8.30;;;2.80;;
2866;SDS011;1441;48.886;8.728;2023-05-24T14:13:30;8.20;;;1.70;;
2866;SDS011;1441;48.886;8.728;2023-05-24T14:15:55;5.67;;;2.20;;
2866;SDS011;1441;48.886;8.728;2023-05-24T14:18:21;7.43;;;2.63;;
2866;SDS011;1441;48.886;8.728;2023-05-24T14:20:47;5.37;;;2.30;;
2866;SDS011;1441;48.886;8.728;2023-05-24T14:23:12;6.53;;;2.50;;
2866;SDS011;1441;48.886;8.728;2023-05-24T14:25:38;9.20;;;2.50;;
2866;SDS011;1441;48.886;8.728;2023-05-24T14:28:05;6.30;;;1.80;;
2866;SDS011;1441;48.886;8.728;2023-05-24T14:30:32;4.67;;;2.23;;
2866;SDS011;1441;48.886;8.728;2023-05-24T14:32:58;10.30;;;2.70;;
2866;SDS011;1441;48.886;8.728;2023-05-24T14:35:25;5.40;;;2.40;;
2866;SDS011;1441;48.886;8.728;2023-05-24T14:37:50;6.03;;;2.00;;
2866;SDS011;1441;48.886;8.728;2023-05-24T14:40:17;6.43;;;2.10;;
2866;SDS011;1441;48.886;8.728;2023-05-24T14:42:43;7.60;;;2.50;;
2866;SDS011;1441;48.886;8.728;2023-05-24T14:45:09;7.10;;;2.83;;
2866;SDS011;1441;48.886;8.728;2023-05-24T14:47:35;8.93;;;1.87;;
2866;SDS011;1441;48.886;8.728;2023-05-24T14:50:00;4.50;;;1.73;;
2866;SDS011;1441;48.886;8.728;2023-05-24T14:52:26;13.83;;;2.80;;
2866;SDS011;1441;48.886;8.728;2023-05-24T14:54:52;10.73;;;4.57;;
2866;SDS011;1441;48.886;8.728;2023-05-24T14:57:18;8.50;;;4.80;;
2866;SDS011;1441;48.886;8.728;2023-05-24T14:59:43;6.53;;;2.53;;
2866;SDS011;1441;48.886;8.728;2023-05-24T15:02:09;9.20;;;1.83;;
2866;SDS011;1441;48.886;8.728;2023-05-24T15:04:35;6.17;;;2.03;;
2866;SDS011;1441;48.886;8.728;2023-05-24T15:07:00;4.33;;;1.97;;
2866;SDS011;1441;48.886;8.728;2023-05-24T15:09:27;5.53;;;2.33;;
2866;SDS011;1441;48.886;8.728;2023-05-24T15:11:53;4.20;;;1.70;;
2866;SDS011;1441;48.886;8.728;2023-05-24T15:14:18;5.90;;;1.70;;
2866;SDS011;1441;48.886;8.728;2023-05-24T15:16:44;5.60;;;2.07;;
2866;SDS011;1441;48.886;8.728;2023-05-24T15:19:09;3.23;;;1.80;;
2866;SDS011;1441;48.886;8.728;2023-05-24T15:21:37;4.33;;;1.70;;
2866;SDS011;1441;48.886;8.728;2023-05-24T15:24:02;9.13;;;2.37;;